sensor_id;sensor_type;location;lat;lon;timestamp;P1;durP1;ratioP1;P2;durP2;ratioP2
8230;SDS011;4156;50.908;6.974;2023-09-19T00:02:01;2.33;;;1.60;;
8230;SDS011;4156;50.908;6.974;2023-09-19T00:04:30;4.20;;;1.90;;
8230;SDS011;4156;50.908;6.974;2023-09-19T00:06:57;4.13;;;1.70;;
8230;SDS011;4156;50.908;6.974;2023-09-19T00:09:23;3.70;;;1.83;;
8230;SDS011;4156;50.908;6.974;2023-09-19T00:11:52;2.90;;;1.83;;
8230;SDS011;4156;50.908;6.974;2023-09-19T00:14:18;5.37;;;2.20;;
8230;SDS011;4156;50.908;6.974;2023-09-19T00:16:43;5.27;;;1.87;;
8230;SDS011;4156;50.908;6.974;2023-09-19T00:19:09;5.20;;;2.00;;
8230;SDS011;4156;50.908;6.974;2023-09-19T00:21:34;5.43;;;2.00;;
8230;SDS011;4156;50.908;6.974;2023-09-19T00:24:03;3.57;;;1.73;;
8230;SDS011;4156;50.908;6.974;2023-09-19T00:26:32;2.87;;;1.70;;
8230;SDS011;4156;50.908;6.974;2023-09-19T00:28:59;3.13;;;1.50;;
8230;SDS011;4156;50.908;6.974;2023-09-19T00:31:30;2.57;;;1.60;;
8230;SDS011;4156;50.908;6.974;2023-09-19T00:33:55;4.50;;;1.80;;
8230;SDS011;4156;50.908;6.974;2023-09-19T00:36:27;3.77;;;1.80;;
8230;SDS011;4156;50.908;6.974;2023-09-19T00:38:54;2.87;;;1.60;;
8230;SDS011;4156;50.908;6.974;2023-09-19T00:41:19;3.77;;;1.80;;
8230;SDS011;4156;50.908;6.974;2023-09-19T00:43:46;5.50;;;1.70;;
8230;SDS011;4156;50.908;6.974;2023-09-19T00:46:12;5.20;;;1.93;;
8230;SDS011;4156;50.908;6.974;2023-09-19T00:48:41;5.73;;;2.00;;
8230;SDS011;4156;50.908;6.974;2023-09-19T00:51:10;3.57;;;1.57;;
8230;SDS011;4156;50.908;6.974;2023-09-19T00:53:36;2.40;;;1.70;;
8230;SDS011;4156;50.908;6.974;2023-09-19T00:56:03;4.60;;;1.73;;
8230;SDS011;4156;50.908;6.974;2023-09-19T00:58:33;2.00;;;1.73;;
8230;SDS011;4156;50.908;6.974;2023-09-19T01:01:00;4.47;;;1.97;;
8230;SDS011;4156;50.908;6.974;2023-09-19T01:03:28;2.53;;;1.90;;
8230;SDS011;4156;50.908;6.974;2023-09-19T01:05:53;5.03;;;1.77;;
8230;SDS011;4156;50.908;6.974;2023-09-19T01:08:19;4.33;;;1.90;;
8230;SDS011;4156;50.908;6.974;2023-09-19T01:11:01;3.27;;;1.70;;
8230;SDS011;4156;50.908;6.974;2023-09-19T01:16:35;4.17;;;1.60;;
8230;SDS011;4156;50.908;6.974;2023-09-19T01:21:57;5.43;;;1.70;;
8230;SDS011;4156;50.908;6.974;2023-09-19T01:27:25;3.83;;;1.80;;
8230;SDS011;4156;50.908;6.974;2023-09-19T01:30:06;3.10;;;1.60;;
8230;SDS011;4156;50.908;6.974;2023-09-19T01:32:36;4.50;;;2.30;;
8230;SDS011;4156;50.908;6.974;2023-09-19T01:35:04;6.63;;;1.80;;
8230;SDS011;4156;50.908;6.974;2023-09-19T01:37:30;6.33;;;2.17;;
8230;SDS011;4156;50.908;6.974;2023-09-19T01:39:58;4.47;;;1.90;;
8230;SDS011;4156;50.908;6.974;2023-09-19T01:42:43;4.70;;;2.20;;
8230;SDS011;4156;50.908;6.974;2023-09-19T01:45:13;4.27;;;1.80;;
8230;SDS011;4156;50.908;6.974;2023-09-19T01:47:56;3.47;;;1.70;;
8230;SDS011;4156;50.908;6.974;2023-09-19T01:50:37;6.40;;;2.10;;
8230;SDS011;4156;50.908;6.974;2023-09-19T01:53:15;3.93;;;1.90;;
8230;SDS011;4156;50.908;6.974;2023-09-19T01:55:49;4.57;;;1.90;;
8230;SDS011;4156;50.908;6.974;2023-09-19T02:00:49;5.00;;;2.10;;
8230;SDS011;4156;50.908;6.974;2023-09-19T02:03:19;4.33;;;1.90;;
8230;SDS011;4156;50.908;6.974;2023-09-19T02:05:51;5.30;;;1.93;;
8230;SDS011;4156;50.908;6.974;2023-09-19T02:08:19;3.13;;;1.60;;
8230;SDS011;4156;50.908;6.974;2023-09-19T02:10:46;3.67;;;1.70;;
8230;SDS011;4156;50.908;6.974;2023-09-19T02:13:17;4.07;;;1.70;;
8230;SDS011;4156;50.908;6.974;2023-09-19T02:15:44;3.03;;;1.90;;
8230;SDS011;4156;50.908;6.974;2023-09-19T02:18:11;2.83;;;1.60;;
8230;SDS011;4156;50.908;6.974;2023-09-19T02:20:37;6.00;;;1.90;;
8230;SDS011;4156;50.908;6.974;2023-09-19T02:23:03;5.50;;;1.70;;
8230;SDS011;4156;50.908;6.974;2023-09-19T02:25:29;5.73;;;1.90;;
8230;SDS011;4156;50.908;6.974;2023-09-19T02:27:56;3.83;;;1.83;;
8230;SDS011;4156;50.908;6.974;2023-09-19T02:30:23;5.60;;;2.20;;
8230;SDS011;4156;50.908;6.974;2023-09-19T02:32:50;3.40;;;1.70;;
8230;SDS011;4156;50.908;6.974;2023-09-19T02:35:16;5.17;;;2.00;;
8230;SDS011;4156;50.908;6.974;2023-09-19T02:37:44;2.60;;;1.60;;
8230;SDS011;4156;50.908;6.974;2023-09-19T02:40:10;5.83;;;2.13;;
8230;SDS011;4156;50.908;6.974;2023-09-19T02:42:48;8.50;;;2.13;;
8230;SDS011;4156;50.908;6.974;2023-09-19T02:45:17;5.33;;;1.90;;
8230;SDS011;4156;50.908;6.974;2023-09-19T02:47:46;5.57;;;1.97;;
8230;SDS011;4156;50.908;6.974;2023-09-19T02:50:13;7.03;;;2.07;;
8230;SDS011;4156;50.908;6.974;2023-09-19T02:52:42;5.47;;;1.97;;
8230;SDS011;4156;50.908;6.974;2023-09-19T02:55:09;3.20;;;1.87;;
8230;SDS011;4156;50.908;6.974;2023-09-19T02:57:35;4.97;;;2.07;;
8230;SDS011;4156;50.908;6.974;2023-09-19T03:00:05;5.47;;;2.03;;
8230;SDS011;4156;50.908;6.974;2023-09-19T03:02:32;5.13;;;2.00;;
8230;SDS011;4156;50.908;6.974;2023-09-19T03:04:59;3.63;;;1.80;;
8230;SDS011;4156;50.908;6.974;2023-09-19T03:07:25;5.37;;;1.90;;
8230;SDS011;4156;50.908;6.974;2023-09-19T03:09:51;2.60;;;1.57;;
8230;SDS011;4156;50.908;6.974;2023-09-19T03:12:17;5.67;;;1.90;;
8230;SDS011;4156;50.908;6.974;2023-09-19T03:14:43;6.93;;;2.50;;
8230;SDS011;4156;50.908;6.974;2023-09-19T03:17:09;7.80;;;2.13;;
8230;SDS011;4156;50.908;6.974;2023-09-19T03:19:34;4.87;;;2.30;;
8230;SDS011;4156;50.908;6.974;2023-09-19T03:22:00;3.90;;;2.17;;
8230;SDS011;4156;50.908;6.974;2023-09-19T03:24:25;3.77;;;1.60;;
8230;SDS011;4156;50.908;6.974;2023-09-19T03:26:51;4.20;;;2.10;;
8230;SDS011;4156;50.908;6.974;2023-09-19T03:29:17;6.53;;;2.10;;
8230;SDS011;4156;50.908;6.974;2023-09-19T03:31:43;4.70;;;1.90;;
8230;SDS011;4156;50.908;6.974;2023-09-19T03:34:08;4.50;;;2.00;;
8230;SDS011;4156;50.908;6.974;2023-09-19T03:36:34;6.47;;;2.87;;
8230;SDS011;4156;50.908;6.974;2023-09-19T03:39:00;4.57;;;2.23;;
8230;SDS011;4156;50.908;6.974;2023-09-19T03:41:26;7.20;;;2.50;;
8230;SDS011;4156;50.908;6.974;2023-09-19T03:43:52;7.23;;;2.20;;
8230;SDS011;4156;50.908;6.974;2023-09-19T03:46:18;4.57;;;2.17;;
8230;SDS011;4156;50.908;6.974;2023-09-19T03:48:43;6.37;;;2.07;;
8230;SDS011;4156;50.908;6.974;2023-09-19T03:51:09;6.80;;;2.23;;
8230;SDS011;4156;50.908;6.974;2023-09-19T03:53:35;4.97;;;2.00;;
8230;SDS011;4156;50.908;6.974;2023-09-19T03:56:01;11.53;;;3.03;;
8230;SDS011;4156;50.908;6.974;2023-09-19T03:58:26;5.97;;;2.30;;
8230;SDS011;4156;50.908;6.974;2023-09-19T04:00:55;4.77;;;2.27;;
8230;SDS011;4156;50.908;6.974;2023-09-19T04:03:21;10.60;;;2.37;;
8230;SDS011;4156;50.908;6.974;2023-09-19T04:05:47;3.97;;;1.83;;
8230;SDS011;4156;50.908;6.974;2023-09-19T04:08:13;4.10;;;2.00;;
8230;SDS011;4156;50.908;6.974;2023-09-19T04:10:41;6.97;;;2.40;;
8230;SDS011;4156;50.908;6.974;2023-09-19T04:13:07;5.73;;;2.40;;
8230;SDS011;4156;50.908;6.974;2023-09-19T04:15:33;7.00;;;2.20;;
8230;SDS011;4156;50.908;6.974;2023-09-19T04:17:58;5.73;;;2.20;;
8230;SDS011;4156;50.908;6.974;2023-09-19T04:20:24;7.07;;;2.33;;
8230;SDS011;4156;50.908;6.974;2023-09-19T04:22:50;10.07;;;1.97;;
8230;SDS011;4156;50.908;6.974;2023-09-19T04:25:16;3.47;;;1.77;;
8230;SDS011;4156;50.908;6.974;2023-09-19T04:27:43;7.70;;;2.40;;
8230;SDS011;4156;50.908;6.974;2023-09-19T04:30:09;4.60;;;2.13;;
8230;SDS011;4156;50.908;6.974;2023-09-19T04:32:36;9.73;;;2.80;;
8230;SDS011;4156;50.908;6.974;2023-09-19T04:35:04;7.37;;;2.13;;
8230;SDS011;4156;50.908;6.974;2023-09-19T04:37:33;7.73;;;2.17;;
8230;SDS011;4156;50.908;6.974;2023-09-19T04:40:03;8.40;;;2.57;;
8230;SDS011;4156;50.908;6.974;2023-09-19T04:42:31;8.17;;;2.43;;
8230;SDS011;4156;50.908;6.974;2023-09-19T04:44:56;5.20;;;2.23;;
8230;SDS011;4156;50.908;6.974;2023-09-19T04:47:22;6.63;;;2.43;;
8230;SDS011;4156;50.908;6.974;2023-09-19T04:49:47;7.63;;;2.10;;
8230;SDS011;4156;50.908;6.974;2023-09-19T04:52:13;5.77;;;2.10;;
8230;SDS011;4156;50.908;6.974;2023-09-19T04:54:40;6.27;;;2.17;;
8230;SDS011;4156;50.908;6.974;2023-09-19T04:57:06;3.30;;;1.80;;
8230;SDS011;4156;50.908;6.974;2023-09-19T04:59:32;5.73;;;2.10;;
8230;SDS011;4156;50.908;6.974;2023-09-19T05:01:58;5.20;;;1.70;;
8230;SDS011;4156;50.908;6.974;2023-09-19T05:04:23;4.47;;;2.40;;
8230;SDS011;4156;50.908;6.974;2023-09-19T05:06:49;3.27;;;1.97;;
8230;SDS011;4156;50.908;6.974;2023-09-19T05:09:15;5.50;;;2.07;;
8230;SDS011;4156;50.908;6.974;2023-09-19T05:11:45;4.63;;;1.80;;
8230;SDS011;4156;50.908;6.974;2023-09-19T05:14:11;6.63;;;2.33;;
8230;SDS011;4156;50.908;6.974;2023-09-19T05:16:37;5.40;;;2.10;;
8230;SDS011;4156;50.908;6.974;2023-09-19T05:19:02;6.33;;;2.20;;
8230;SDS011;4156;50.908;6.974;2023-09-19T05:21:28;5.27;;;1.60;;
8230;SDS011;4156;50.908;6.974;2023-09-19T05:23:55;5.63;;;2.20;;
8230;SDS011;4156;50.908;6.974;2023-09-19T05:26:21;3.67;;;1.70;;
8230;SDS011;4156;50.908;6.974;2023-09-19T05:28:47;10.70;;;2.40;;
8230;SDS011;4156;50.908;6.974;2023-09-19T05:31:13;6.83;;;3.20;;
8230;SDS011;4156;50.908;6.974;2023-09-19T05:33:39;7.13;;;2.43;;
8230;SDS011;4156;50.908;6.974;2023-09-19T05:36:04;12.43;;;3.20;;
8230;SDS011;4156;50.908;6.974;2023-09-19T05:38:30;6.90;;;2.10;;
8230;SDS011;4156;50.908;6.974;2023-09-19T05:40:57;4.10;;;1.80;;
8230;SDS011;4156;50.908;6.974;2023-09-19T05:43:23;7.30;;;2.33;;
8230;SDS011;4156;50.908;6.974;2023-09-19T05:45:49;4.87;;;2.00;;
8230;SDS011;4156;50.908;6.974;2023-09-19T05:48:17;7.17;;;2.17;;
8230;SDS011;4156;50.908;6.974;2023-09-19T05:50:43;6.17;;;2.13;;
8230;SDS011;4156;50.908;6.974;2023-09-19T05:53:11;5.67;;;2.53;;
8230;SDS011;4156;50.908;6.974;2023-09-19T05:55:37;5.93;;;2.03;;
8230;SDS011;4156;50.908;6.974;2023-09-19T05:58:03;4.83;;;1.93;;
8230;SDS011;4156;50.908;6.974;2023-09-19T06:00:29;6.13;;;2.20;;
8230;SDS011;4156;50.908;6.974;2023-09-19T06:02:58;5.87;;;2.20;;
8230;SDS011;4156;50.908;6.974;2023-09-19T06:05:24;4.63;;;2.10;;
8230;SDS011;4156;50.908;6.974;2023-09-19T06:07:55;5.10;;;2.00;;
8230;SDS011;4156;50.908;6.974;2023-09-19T06:10:20;7.23;;;2.30;;
8230;SDS011;4156;50.908;6.974;2023-09-19T06:12:47;5.77;;;1.87;;
8230;SDS011;4156;50.908;6.974;2023-09-19T06:15:13;9.23;;;2.50;;
8230;SDS011;4156;50.908;6.974;2023-09-19T06:20:16;6.63;;;2.33;;
8230;SDS011;4156;50.908;6.974;2023-09-19T06:22:42;4.83;;;2.10;;
8230;SDS011;4156;50.908;6.974;2023-09-19T06:25:13;3.83;;;2.10;;
8230;SDS011;4156;50.908;6.974;2023-09-19T06:27:47;6.30;;;2.00;;
8230;SDS011;4156;50.908;6.974;2023-09-19T06:30:20;5.17;;;2.00;;
8230;SDS011;4156;50.908;6.974;2023-09-19T06:32:47;4.30;;;2.00;;
8230;SDS011;4156;50.908;6.974;2023-09-19T06:35:14;5.93;;;2.40;;
8230;SDS011;4156;50.908;6.974;2023-09-19T06:37:41;5.67;;;2.23;;
8230;SDS011;4156;50.908;6.974;2023-09-19T06:42:40;5.10;;;1.97;;
8230;SDS011;4156;50.908;6.974;2023-09-19T06:45:13;4.27;;;1.67;;
8230;SDS011;4156;50.908;6.974;2023-09-19T06:47:43;4.07;;;2.40;;
8230;SDS011;4156;50.908;6.974;2023-09-19T06:50:10;5.47;;;1.97;;
8230;SDS011;4156;50.908;6.974;2023-09-19T06:52:39;6.40;;;2.37;;
8230;SDS011;4156;50.908;6.974;2023-09-19T06:55:08;6.60;;;2.43;;
8230;SDS011;4156;50.908;6.974;2023-09-19T06:57:38;5.22;;;2.10;;
8230;SDS011;4156;50.908;6.974;2023-09-19T07:00:05;7.13;;;2.23;;
8230;SDS011;4156;50.908;6.974;2023-09-19T07:02:40;6.53;;;2.13;;
8230;SDS011;4156;50.908;6.974;2023-09-19T07:05:09;5.90;;;2.10;;
8230;SDS011;4156;50.908;6.974;2023-09-19T07:07:34;3.40;;;2.50;;
8230;SDS011;4156;50.908;6.974;2023-09-19T07:10:03;8.50;;;2.63;;
8230;SDS011;4156;50.908;6.974;2023-09-19T07:12:35;4.93;;;2.10;;
8230;SDS011;4156;50.908;6.974;2023-09-19T07:15:01;8.40;;;2.33;;
8230;SDS011;4156;50.908;6.974;2023-09-19T07:17:27;6.60;;;2.30;;
8230;SDS011;4156;50.908;6.974;2023-09-19T07:19:54;9.83;;;2.80;;
8230;SDS011;4156;50.908;6.974;2023-09-19T07:22:19;12.43;;;2.97;;
8230;SDS011;4156;50.908;6.974;2023-09-19T07:24:45;8.80;;;2.78;;
8230;SDS011;4156;50.908;6.974;2023-09-19T07:27:11;4.43;;;2.47;;
8230;SDS011;4156;50.908;6.974;2023-09-19T07:29:37;10.47;;;2.17;;
8230;SDS011;4156;50.908;6.974;2023-09-19T07:32:03;5.40;;;2.13;;
8230;SDS011;4156;50.908;6.974;2023-09-19T07:34:29;6.10;;;2.53;;
8230;SDS011;4156;50.908;6.974;2023-09-19T07:36:54;5.60;;;2.20;;
8230;SDS011;4156;50.908;6.974;2023-09-19T07:39:20;6.33;;;2.30;;
8230;SDS011;4156;50.908;6.974;2023-09-19T07:41:45;6.33;;;2.10;;
8230;SDS011;4156;50.908;6.974;2023-09-19T07:44:11;6.20;;;1.83;;
8230;SDS011;4156;50.908;6.974;2023-09-19T07:46:36;5.20;;;2.20;;
8230;SDS011;4156;50.908;6.974;2023-09-19T07:49:03;4.63;;;2.07;;
8230;SDS011;4156;50.908;6.974;2023-09-19T07:51:29;6.57;;;2.20;;
8230;SDS011;4156;50.908;6.974;2023-09-19T07:53:55;4.77;;;2.23;;
8230;SDS011;4156;50.908;6.974;2023-09-19T07:56:21;9.83;;;2.27;;
8230;SDS011;4156;50.908;6.974;2023-09-19T07:58:47;5.83;;;2.33;;
8230;SDS011;4156;50.908;6.974;2023-09-19T08:01:13;4.07;;;1.83;;
8230;SDS011;4156;50.908;6.974;2023-09-19T08:03:39;5.73;;;2.43;;
8230;SDS011;4156;50.908;6.974;2023-09-19T08:06:08;8.60;;;2.40;;
8230;SDS011;4156;50.908;6.974;2023-09-19T08:08:34;8.27;;;2.50;;
8230;SDS011;4156;50.908;6.974;2023-09-19T08:11:04;6.83;;;2.00;;
8230;SDS011;4156;50.908;6.974;2023-09-19T08:13:36;8.20;;;2.27;;
8230;SDS011;4156;50.908;6.974;2023-09-19T08:16:03;6.77;;;2.10;;
8230;SDS011;4156;50.908;6.974;2023-09-19T08:18:29;5.90;;;2.60;;
8230;SDS011;4156;50.908;6.974;2023-09-19T08:20:55;7.33;;;2.50;;
8230;SDS011;4156;50.908;6.974;2023-09-19T08:23:23;5.30;;;2.50;;
8230;SDS011;4156;50.908;6.974;2023-09-19T08:25:49;5.47;;;2.00;;
8230;SDS011;4156;50.908;6.974;2023-09-19T08:28:15;3.87;;;2.50;;
8230;SDS011;4156;50.908;6.974;2023-09-19T08:30:48;9.27;;;2.20;;
8230;SDS011;4156;50.908;6.974;2023-09-19T08:33:13;7.53;;;2.43;;
8230;SDS011;4156;50.908;6.974;2023-09-19T08:35:40;5.37;;;2.03;;
8230;SDS011;4156;50.908;6.974;2023-09-19T08:38:07;4.87;;;2.13;;
8230;SDS011;4156;50.908;6.974;2023-09-19T08:40:36;5.17;;;2.10;;
8230;SDS011;4156;50.908;6.974;2023-09-19T08:43:07;4.97;;;2.23;;
8230;SDS011;4156;50.908;6.974;2023-09-19T08:45:33;4.93;;;1.90;;
8230;SDS011;4156;50.908;6.974;2023-09-19T08:53:40;5.63;;;2.10;;
8230;SDS011;4156;50.908;6.974;2023-09-19T08:56:18;4.13;;;1.90;;
8230;SDS011;4156;50.908;6.974;2023-09-19T09:01:19;5.87;;;2.20;;
8230;SDS011;4156;50.908;6.974;2023-09-19T09:03:55;4.07;;;1.93;;
8230;SDS011;4156;50.908;6.974;2023-09-19T09:06:22;5.50;;;1.80;;
8230;SDS011;4156;50.908;6.974;2023-09-19T09:08:50;4.97;;;2.13;;
8230;SDS011;4156;50.908;6.974;2023-09-19T09:11:17;5.03;;;2.30;;
8230;SDS011;4156;50.908;6.974;2023-09-19T09:13:44;5.37;;;2.10;;
8230;SDS011;4156;50.908;6.974;2023-09-19T09:16:10;4.07;;;1.90;;
8230;SDS011;4156;50.908;6.974;2023-09-19T09:18:36;10.27;;;2.13;;
8230;SDS011;4156;50.908;6.974;2023-09-19T09:21:02;8.17;;;2.33;;
8230;SDS011;4156;50.908;6.974;2023-09-19T09:23:29;4.30;;;1.90;;
8230;SDS011;4156;50.908;6.974;2023-09-19T09:25:57;2.87;;;1.90;;
8230;SDS011;4156;50.908;6.974;2023-09-19T09:28:27;3.80;;;2.30;;
8230;SDS011;4156;50.908;6.974;2023-09-19T09:30:54;5.60;;;2.50;;
8230;SDS011;4156;50.908;6.974;2023-09-19T09:33:20;4.97;;;2.03;;
8230;SDS011;4156;50.908;6.974;2023-09-19T09:35:50;5.33;;;1.90;;
8230;SDS011;4156;50.908;6.974;2023-09-19T09:38:20;5.10;;;2.00;;
8230;SDS011;4156;50.908;6.974;2023-09-19T09:40:51;4.23;;;1.87;;
8230;SDS011;4156;50.908;6.974;2023-09-19T09:43:34;2.17;;;1.77;;
8230;SDS011;4156;50.908;6.974;2023-09-19T09:46:23;2.80;;;1.60;;
8230;SDS011;4156;50.908;6.974;2023-09-19T09:51:36;5.13;;;1.87;;
8230;SDS011;4156;50.908;6.974;2023-09-19T09:54:10;3.53;;;1.80;;
8230;SDS011;4156;50.908;6.974;2023-09-19T09:56:51;5.80;;;2.27;;
8230;SDS011;4156;50.908;6.974;2023-09-19T09:59:25;3.70;;;1.80;;
8230;SDS011;4156;50.908;6.974;2023-09-19T10:02:14;3.90;;;1.87;;
8230;SDS011;4156;50.908;6.974;2023-09-19T10:04:50;4.20;;;2.03;;
8230;SDS011;4156;50.908;6.974;2023-09-19T10:07:39;3.00;;;1.70;;
8230;SDS011;4156;50.908;6.974;2023-09-19T10:10:15;4.90;;;1.60;;
8230;SDS011;4156;50.908;6.974;2023-09-19T10:13:03;3.97;;;1.70;;
8230;SDS011;4156;50.908;6.974;2023-09-19T10:15:32;4.60;;;2.00;;
8230;SDS011;4156;50.908;6.974;2023-09-19T10:18:04;7.97;;;1.80;;
8230;SDS011;4156;50.908;6.974;2023-09-19T10:20:33;3.90;;;1.93;;
8230;SDS011;4156;50.908;6.974;2023-09-19T10:23:09;4.67;;;1.90;;
8230;SDS011;4156;50.908;6.974;2023-09-19T10:25:45;3.33;;;1.60;;
8230;SDS011;4156;50.908;6.974;2023-09-19T10:38:33;2.80;;;1.70;;
8230;SDS011;4156;50.908;6.974;2023-09-19T10:41:43;2.27;;;1.70;;
8230;SDS011;4156;50.908;6.974;2023-09-19T10:44:10;3.03;;;1.60;;
8230;SDS011;4156;50.908;6.974;2023-09-19T10:46:49;4.27;;;1.87;;
8230;SDS011;4156;50.908;6.974;2023-09-19T10:49:28;3.43;;;1.70;;
8230;SDS011;4156;50.908;6.974;2023-09-19T10:52:22;5.87;;;2.17;;
8230;SDS011;4156;50.908;6.974;2023-09-19T10:55:18;4.10;;;2.00;;
8230;SDS011;4156;50.908;6.974;2023-09-19T10:58:27;4.73;;;1.80;;
8230;SDS011;4156;50.908;6.974;2023-09-19T11:01:07;6.43;;;2.33;;
8230;SDS011;4156;50.908;6.974;2023-09-19T11:03:48;3.40;;;1.87;;
8230;SDS011;4156;50.908;6.974;2023-09-19T11:07:05;3.93;;;1.80;;
8230;SDS011;4156;50.908;6.974;2023-09-19T11:09:56;3.53;;;1.73;;
8230;SDS011;4156;50.908;6.974;2023-09-19T11:15:04;3.37;;;2.17;;
8230;SDS011;4156;50.908;6.974;2023-09-19T11:17:42;3.43;;;1.77;;
8230;SDS011;4156;50.908;6.974;2023-09-19T11:23:23;8.23;;;2.20;;
8230;SDS011;4156;50.908;6.974;2023-09-19T11:26:32;4.83;;;2.03;;
8230;SDS011;4156;50.908;6.974;2023-09-19T11:29:29;2.77;;;1.80;;
8230;SDS011;4156;50.908;6.974;2023-09-19T11:32:12;5.03;;;2.27;;
8230;SDS011;4156;50.908;6.974;2023-09-19T11:34:45;3.13;;;1.73;;
8230;SDS011;4156;50.908;6.974;2023-09-19T12:03:17;4.87;;;1.77;;
8230;SDS011;4156;50.908;6.974;2023-09-19T12:13:55;3.30;;;1.80;;
8230;SDS011;4156;50.908;6.974;2023-09-19T12:27:17;4.00;;;1.90;;
8230;SDS011;4156;50.908;6.974;2023-09-19T12:33:25;3.97;;;1.97;;
8230;SDS011;4156;50.908;6.974;2023-09-19T12:43:11;4.00;;;2.10;;
8230;SDS011;4156;50.908;6.974;2023-09-19T12:46:44;3.77;;;2.17;;
8230;SDS011;4156;50.908;6.974;2023-09-19T12:53:57;3.93;;;1.80;;
8230;SDS011;4156;50.908;6.974;2023-09-19T12:57:37;3.67;;;2.00;;
8230;SDS011;4156;50.908;6.974;2023-09-19T13:01:11;2.77;;;1.70;;
8230;SDS011;4156;50.908;6.974;2023-09-19T13:11:35;2.93;;;1.67;;
8230;SDS011;4156;50.908;6.974;2023-09-19T13:14:26;3.00;;;1.63;;
8230;SDS011;4156;50.908;6.974;2023-09-19T13:17:42;5.03;;;2.53;;
8230;SDS011;4156;50.908;6.974;2023-09-19T13:27:41;3.77;;;2.00;;
8230;SDS011;4156;50.908;6.974;2023-09-19T13:30:41;3.93;;;1.80;;
8230;SDS011;4156;50.908;6.974;2023-09-19T13:33:13;4.30;;;1.80;;
8230;SDS011;4156;50.908;6.974;2023-09-19T13:35:56;3.53;;;1.80;;
8230;SDS011;4156;50.908;6.974;2023-09-19T13:38:33;4.70;;;1.70;;
8230;SDS011;4156;50.908;6.974;2023-09-19T13:41:02;4.17;;;2.00;;
8230;SDS011;4156;50.908;6.974;2023-09-19T13:43:37;3.03;;;1.47;;
8230;SDS011;4156;50.908;6.974;2023-09-19T13:46:07;4.57;;;1.73;;
8230;SDS011;4156;50.908;6.974;2023-09-19T13:49:10;3.60;;;1.60;;
8230;SDS011;4156;50.908;6.974;2023-09-19T13:52:00;6.07;;;1.97;;
8230;SDS011;4156;50.908;6.974;2023-09-19T13:54:44;2.83;;;1.60;;
8230;SDS011;4156;50.908;6.974;2023-09-19T13:57:32;3.20;;;1.47;;
8230;SDS011;4156;50.908;6.974;2023-09-19T14:00:22;3.67;;;1.50;;
8230;SDS011;4156;50.908;6.974;2023-09-19T14:03:20;5.60;;;1.93;;
8230;SDS011;4156;50.908;6.974;2023-09-19T14:06:17;3.77;;;1.77;;
8230;SDS011;4156;50.908;6.974;2023-09-19T14:08:47;1.83;;;1.53;;
8230;SDS011;4156;50.908;6.974;2023-09-19T14:11:34;3.47;;;1.40;;
8230;SDS011;4156;50.908;6.974;2023-09-19T14:14:12;3.03;;;1.70;;
8230;SDS011;4156;50.908;6.974;2023-09-19T14:17:07;2.80;;;1.40;;
8230;SDS011;4156;50.908;6.974;2023-09-19T14:19:44;3.07;;;1.80;;
8230;SDS011;4156;50.908;6.974;2023-09-19T14:22:43;1.87;;;1.40;;
8230;SDS011;4156;50.908;6.974;2023-09-19T14:25:43;5.00;;;1.93;;
8230;SDS011;4156;50.908;6.974;2023-09-19T14:28:19;7.53;;;1.60;;
8230;SDS011;4156;50.908;6.974;2023-09-19T14:30:50;2.40;;;1.50;;
8230;SDS011;4156;50.908;6.974;2023-09-19T14:33:23;3.57;;;1.60;;
8230;SDS011;4156;50.908;6.974;2023-09-19T14:35:51;4.00;;;1.50;;
8230;SDS011;4156;50.908;6.974;2023-09-19T14:38:18;3.80;;;1.40;;
8230;SDS011;4156;50.908;6.974;2023-09-19T14:41:09;2.57;;;1.30;;
8230;SDS011;4156;50.908;6.974;2023-09-19T14:43:39;3.67;;;1.40;;
8230;SDS011;4156;50.908;6.974;2023-09-19T14:46:06;1.83;;;1.60;;
8230;SDS011;4156;50.908;6.974;2023-09-19T14:48:36;1.60;;;1.40;;
8230;SDS011;4156;50.908;6.974;2023-09-19T14:51:13;2.97;;;1.73;;
8230;SDS011;4156;50.908;6.974;2023-09-19T14:53:51;2.23;;;1.40;;
8230;SDS011;4156;50.908;6.974;2023-09-19T14:56:48;1.67;;;1.33;;
8230;SDS011;4156;50.908;6.974;2023-09-19T14:59:31;1.63;;;1.27;;
8230;SDS011;4156;50.908;6.974;2023-09-19T15:02:00;3.17;;;1.47;;
8230;SDS011;4156;50.908;6.974;2023-09-19T15:04:29;1.40;;;1.20;;
8230;SDS011;4156;50.908;6.974;2023-09-19T15:06:55;2.57;;;1.30;;
8230;SDS011;4156;50.908;6.974;2023-09-19T15:09:23;1.47;;;1.33;;
8230;SDS011;4156;50.908;6.974;2023-09-19T15:12:10;3.67;;;1.53;;
8230;SDS011;4156;50.908;6.974;2023-09-19T15:14:49;3.00;;;1.60;;
8230;SDS011;4156;50.908;6.974;2023-09-19T15:17:39;2.07;;;1.10;;
8230;SDS011;4156;50.908;6.974;2023-09-19T15:20:42;1.70;;;1.20;;
8230;SDS011;4156;50.908;6.974;2023-09-19T15:23:15;2.60;;;1.20;;
8230;SDS011;4156;50.908;6.974;2023-09-19T15:26:03;3.80;;;1.50;;
8230;SDS011;4156;50.908;6.974;2023-09-19T15:29:05;1.93;;;1.20;;
8230;SDS011;4156;50.908;6.974;2023-09-19T15:31:38;3.33;;;1.70;;
8230;SDS011;4156;50.908;6.974;2023-09-19T15:34:12;3.40;;;1.30;;
8230;SDS011;4156;50.908;6.974;2023-09-19T15:36:41;3.80;;;1.80;;
8230;SDS011;4156;50.908;6.974;2023-09-19T15:39:07;1.80;;;1.20;;
8230;SDS011;4156;50.908;6.974;2023-09-19T15:41:36;3.97;;;1.20;;
8230;SDS011;4156;50.908;6.974;2023-09-19T15:44:03;2.20;;;1.23;;
8230;SDS011;4156;50.908;6.974;2023-09-19T15:46:30;3.43;;;1.43;;
8230;SDS011;4156;50.908;6.974;2023-09-19T15:48:58;2.10;;;1.37;;
8230;SDS011;4156;50.908;6.974;2023-09-19T15:51:25;1.97;;;1.50;;
8230;SDS011;4156;50.908;6.974;2023-09-19T15:53:52;1.93;;;1.27;;
8230;SDS011;4156;50.908;6.974;2023-09-19T15:56:19;3.40;;;1.20;;
8230;SDS011;4156;50.908;6.974;2023-09-19T15:58:52;2.67;;;1.60;;
8230;SDS011;4156;50.908;6.974;2023-09-19T16:01:22;1.67;;;1.30;;
8230;SDS011;4156;50.908;6.974;2023-09-19T16:03:48;2.17;;;1.50;;
8230;SDS011;4156;50.908;6.974;2023-09-19T16:06:18;3.00;;;1.67;;
8230;SDS011;4156;50.908;6.974;2023-09-19T16:08:49;3.83;;;1.50;;
8230;SDS011;4156;50.908;6.974;2023-09-19T16:11:17;3.67;;;1.77;;
8230;SDS011;4156;50.908;6.974;2023-09-19T16:13:44;3.50;;;1.55;;
8230;SDS011;4156;50.908;6.974;2023-09-19T16:16:11;2.77;;;1.43;;
8230;SDS011;4156;50.908;6.974;2023-09-19T16:18:47;2.63;;;1.53;;
8230;SDS011;4156;50.908;6.974;2023-09-19T16:21:17;2.40;;;1.27;;
8230;SDS011;4156;50.908;6.974;2023-09-19T16:23:48;1.83;;;1.43;;
8230;SDS011;4156;50.908;6.974;2023-09-19T16:26:15;2.67;;;1.63;;
8230;SDS011;4156;50.908;6.974;2023-09-19T16:28:41;1.57;;;1.20;;
8230;SDS011;4156;50.908;6.974;2023-09-19T16:31:09;2.07;;;1.30;;
8230;SDS011;4156;50.908;6.974;2023-09-19T16:33:35;2.97;;;1.60;;
8230;SDS011;4156;50.908;6.974;2023-09-19T16:36:12;3.17;;;1.40;;
8230;SDS011;4156;50.908;6.974;2023-09-19T16:38:42;5.90;;;1.50;;
8230;SDS011;4156;50.908;6.974;2023-09-19T16:41:08;4.57;;;1.80;;
8230;SDS011;4156;50.908;6.974;2023-09-19T16:43:35;2.60;;;1.33;;
8230;SDS011;4156;50.908;6.974;2023-09-19T16:46:02;4.17;;;1.63;;
8230;SDS011;4156;50.908;6.974;2023-09-19T16:48:34;4.23;;;1.67;;
8230;SDS011;4156;50.908;6.974;2023-09-19T16:51:01;2.20;;;1.17;;
8230;SDS011;4156;50.908;6.974;2023-09-19T16:53:31;2.13;;;1.10;;
8230;SDS011;4156;50.908;6.974;2023-09-19T16:56:03;3.07;;;1.77;;
8230;SDS011;4156;50.908;6.974;2023-09-19T16:58:33;2.37;;;1.20;;
8230;SDS011;4156;50.908;6.974;2023-09-19T17:00:59;2.43;;;1.27;;
8230;SDS011;4156;50.908;6.974;2023-09-19T17:03:25;3.97;;;1.50;;
8230;SDS011;4156;50.908;6.974;2023-09-19T17:05:51;2.00;;;1.33;;
8230;SDS011;4156;50.908;6.974;2023-09-19T17:08:21;2.37;;;1.50;;
8230;SDS011;4156;50.908;6.974;2023-09-19T17:10:47;2.93;;;1.57;;
8230;SDS011;4156;50.908;6.974;2023-09-19T17:13:12;2.30;;;1.57;;
8230;SDS011;4156;50.908;6.974;2023-09-19T17:15:38;2.27;;;1.30;;
8230;SDS011;4156;50.908;6.974;2023-09-19T17:18:04;2.53;;;1.50;;
8230;SDS011;4156;50.908;6.974;2023-09-19T17:20:30;2.77;;;1.27;;
8230;SDS011;4156;50.908;6.974;2023-09-19T17:22:56;3.60;;;1.73;;
8230;SDS011;4156;50.908;6.974;2023-09-19T17:25:22;4.60;;;1.50;;
8230;SDS011;4156;50.908;6.974;2023-09-19T17:27:49;2.13;;;1.40;;
8230;SDS011;4156;50.908;6.974;2023-09-19T17:30:15;3.00;;;1.43;;
8230;SDS011;4156;50.908;6.974;2023-09-19T17:32:41;4.20;;;1.77;;
8230;SDS011;4156;50.908;6.974;2023-09-19T17:35:11;3.27;;;2.00;;
8230;SDS011;4156;50.908;6.974;2023-09-19T17:37:43;3.67;;;1.97;;
8230;SDS011;4156;50.908;6.974;2023-09-19T17:40:12;2.80;;;1.37;;
8230;SDS011;4156;50.908;6.974;2023-09-19T17:42:38;4.00;;;1.40;;